createdAt,value
2023-04-09T00:00:29.947Z,8.69
2023-04-09T00:02:57.885Z,8.80
2023-04-09T00:05:25.920Z,8.77
2023-04-09T00:07:53.636Z,8.71
2023-04-09T00:10:22.815Z,8.40
2023-04-09T00:12:50.697Z,8.22
2023-04-09T00:15:29.831Z,8.51
2023-04-09T00:17:58.800Z,8.50
2023-04-09T00:20:26.732Z,8.18
2023-04-09T00:22:55.619Z,8.35
2023-04-09T00:25:24.810Z,8.09
2023-04-09T00:27:52.947Z,8.25
2023-04-09T00:30:20.795Z,8.13
2023-04-09T00:32:48.691Z,8.05
2023-04-09T00:35:17.758Z,8.14
2023-04-09T00:37:45.675Z,7.92
2023-04-09T00:40:13.773Z,8.01
2023-04-09T00:42:43.041Z,8.01
2023-04-09T00:45:11.485Z,7.80
2023-04-09T00:47:39.582Z,7.94
2023-04-09T00:50:08.216Z,7.98
2023-04-09T00:52:36.138Z,7.89
2023-04-09T00:55:05.925Z,7.89
2023-04-09T00:57:34.177Z,8.00
2023-04-09T01:00:04.021Z,7.88
2023-04-09T01:02:31.866Z,7.91
2023-04-09T01:05:00.244Z,7.97
2023-04-09T01:07:46.663Z,7.98
2023-04-09T01:10:29.999Z,8.03
2023-04-09T01:13:08.396Z,7.88
2023-04-09T01:15:41.415Z,7.62
2023-04-09T01:18:16.948Z,7.85
2023-04-09T01:20:50.879Z,7.62
2023-04-09T01:23:29.264Z,7.68
2023-04-09T01:26:05.502Z,7.25
2023-04-09T01:28:46.607Z,7.22
2023-04-09T01:31:18.726Z,7.26
2023-04-09T01:33:47.934Z,7.23
2023-04-09T01:36:16.891Z,7.03
2023-04-09T01:38:47.346Z,7.09
2023-04-09T01:41:18.811Z,6.92
2023-04-09T01:43:49.756Z,6.97
2023-04-09T01:46:19.298Z,6.96
2023-04-09T01:48:48.079Z,6.93
2023-04-09T01:51:16.678Z,6.91
2023-04-09T01:53:44.784Z,6.86
2023-04-09T01:56:12.586Z,6.83
2023-04-09T01:58:40.911Z,6.83
2023-04-09T02:01:13.658Z,6.72
2023-04-09T02:03:47.471Z,6.77
2023-04-09T02:06:18.756Z,6.59
2023-04-09T02:08:48.804Z,6.58
2023-04-09T02:11:17.445Z,6.51
2023-04-09T02:13:46.715Z,6.46
2023-04-09T02:16:17.419Z,6.40
2023-04-09T02:18:45.240Z,6.58
2023-04-09T02:21:13.748Z,6.53
2023-04-09T02:23:41.568Z,6.63
2023-04-09T02:26:09.363Z,6.62
2023-04-09T02:28:37.325Z,6.57
2023-04-09T02:31:05.500Z,6.55
2023-04-09T02:33:35.215Z,6.47
2023-04-09T02:36:03.019Z,6.29
2023-04-09T02:38:30.846Z,6.32
2023-04-09T02:40:58.859Z,6.37
2023-04-09T02:43:26.556Z,6.37
2023-04-09T02:45:54.243Z,6.32
2023-04-09T02:48:22.543Z,6.27
2023-04-09T02:50:51.948Z,6.35
2023-04-09T02:53:21.404Z,6.21
2023-04-09T02:55:49.601Z,6.16
2023-04-09T02:58:17.321Z,6.20
2023-04-09T03:00:45.298Z,6.20
2023-04-09T03:03:13.528Z,6.16
2023-04-09T03:05:41.992Z,6.24
2023-04-09T03:08:11.597Z,6.22
2023-04-09T03:10:39.314Z,6.26
2023-04-09T03:13:07.070Z,6.19
2023-04-09T03:15:34.778Z,6.11
2023-04-09T03:18:02.575Z,6.05
2023-04-09T03:20:30.495Z,6.27
2023-04-09T03:22:58.959Z,6.16
2023-04-09T03:25:36.652Z,6.23
2023-04-09T03:28:12.651Z,6.18
2023-04-09T03:30:44.535Z,6.13
2023-04-09T03:33:12.771Z,5.99
2023-04-09T03:35:51.704Z,5.93
2023-04-09T03:38:27.244Z,6.07
2023-04-09T03:40:57.392Z,6.12
2023-04-09T03:43:25.066Z,6.16
2023-04-09T03:45:54.909Z,5.95
2023-04-09T03:48:26.168Z,5.88
2023-04-09T03:50:54.592Z,5.86
2023-04-09T03:53:33.232Z,5.82
2023-04-09T03:56:07.777Z,5.74
2023-04-09T03:58:37.297Z,5.74
2023-04-09T04:01:05.392Z,5.79
2023-04-09T04:03:38.497Z,5.76
2023-04-09T04:06:21.644Z,5.74
2023-04-09T04:09:04.478Z,5.70
2023-04-09T04:11:42.441Z,5.63
2023-04-09T04:14:10.275Z,5.59
2023-04-09T04:16:39.183Z,5.62
2023-04-09T04:19:07.363Z,5.58
2023-04-09T04:21:41.757Z,5.60
2023-04-09T04:24:09.601Z,5.56
2023-04-09T04:26:37.324Z,5.50
2023-04-09T04:29:06.638Z,5.46
2023-04-09T04:31:46.815Z,5.35
2023-04-09T04:34:17.610Z,5.26
2023-04-09T04:36:49.986Z,5.16
2023-04-09T04:39:18.939Z,5.13
2023-04-09T04:41:55.677Z,5.13
2023-04-09T04:44:28.103Z,5.11
2023-04-09T04:47:05.471Z,5.14
2023-04-09T04:49:33.160Z,5.10
2023-04-09T04:52:04.098Z,5.02
2023-04-09T04:54:33.079Z,5.02
2023-04-09T04:57:01.194Z,4.97
2023-04-09T04:59:49.948Z,5.05
2023-04-09T05:02:19.382Z,5.02
2023-04-09T05:05:13.220Z,4.98
2023-04-09T05:07:48.134Z,5.02
2023-04-09T05:10:16.408Z,5.02
2023-04-09T05:12:45.018Z,5.05
2023-04-09T05:15:19.468Z,4.95
2023-04-09T05:17:47.393Z,4.86
2023-04-09T05:20:16.728Z,4.99
2023-04-09T05:22:52.465Z,4.92
2023-04-09T05:25:26.303Z,4.88
2023-04-09T05:27:54.125Z,5.06
2023-04-09T05:30:23.668Z,5.15
2023-04-09T05:32:52.113Z,5.20
2023-04-09T05:35:20.341Z,5.19
2023-04-09T05:37:49.087Z,5.24
2023-04-09T05:40:16.898Z,5.26
2023-04-09T05:42:44.688Z,5.29
2023-04-09T05:45:19.020Z,5.30
2023-04-09T05:47:53.275Z,5.36
2023-04-09T05:50:23.439Z,5.43
2023-04-09T05:52:54.300Z,5.56
2023-04-09T05:55:23.767Z,5.71
2023-04-09T05:57:57.188Z,5.81
2023-04-09T06:00:25.094Z,5.85
2023-04-09T06:02:54.589Z,6.10
2023-04-09T06:05:22.320Z,6.11
2023-04-09T06:07:50.066Z,6.11
2023-04-09T06:10:17.925Z,6.34
2023-04-09T06:12:47.960Z,6.46
2023-04-09T06:15:16.086Z,6.57
2023-04-09T06:17:44.172Z,6.66
2023-04-09T06:20:13.465Z,6.82
2023-04-09T06:22:41.128Z,6.95
2023-04-09T06:25:09.453Z,7.06
2023-04-09T06:27:37.248Z,7.12
2023-04-09T06:30:06.046Z,7.30
2023-04-09T06:32:43.343Z,7.35
2023-04-09T06:35:20.672Z,7.50
2023-04-09T06:37:48.313Z,7.47
2023-04-09T06:40:16.430Z,7.52
2023-04-09T06:42:44.158Z,7.76
2023-04-09T06:45:19.274Z,7.94
2023-04-09T06:47:46.980Z,8.15
2023-04-09T06:50:14.740Z,8.21
2023-04-09T06:52:47.259Z,8.23
2023-04-09T06:55:18.455Z,8.29
2023-04-09T06:57:46.313Z,8.31
2023-04-09T07:00:15.054Z,8.46
2023-04-09T07:02:43.221Z,8.38
2023-04-09T07:05:11.807Z,8.55
2023-04-09T07:07:39.537Z,8.59
2023-04-09T07:10:09.957Z,8.83
2023-04-09T07:12:37.639Z,9.06
2023-04-09T07:15:07.312Z,9.13
2023-04-09T07:17:36.053Z,9.37
2023-04-09T07:20:04.075Z,9.49
2023-04-09T07:22:31.949Z,9.71
2023-04-09T07:25:00.609Z,9.95
2023-04-09T07:27:30.259Z,9.76
2023-04-09T07:29:59.238Z,10.06
2023-04-09T07:32:28.627Z,10.26
2023-04-09T07:34:57.268Z,10.09
2023-04-09T07:37:25.275Z,10.31
2023-04-09T07:39:53.429Z,10.73
2023-04-09T07:42:21.773Z,10.68
2023-04-09T07:44:51.404Z,10.68
2023-04-09T07:47:19.144Z,10.76
2023-04-09T07:49:47.313Z,10.85
2023-04-09T07:52:15.062Z,10.92
2023-04-09T07:54:43.212Z,10.97
2023-04-09T07:57:11.601Z,10.93
2023-04-09T07:59:39.538Z,10.91
2023-04-09T08:02:08.979Z,11.23
2023-04-09T08:04:36.927Z,11.26
2023-04-09T08:07:05.232Z,11.45
2023-04-09T08:09:32.966Z,11.50
2023-04-09T08:12:01.054Z,11.79
2023-04-09T08:14:28.738Z,11.82
2023-04-09T08:16:56.518Z,12.18
2023-04-09T08:19:25.862Z,12.02
2023-04-09T08:21:53.532Z,12.17
2023-04-09T08:24:21.495Z,12.10
2023-04-09T08:26:49.217Z,12.09
2023-04-09T08:29:17.033Z,12.18
2023-04-09T08:31:45.074Z,12.12
2023-04-09T08:34:13.089Z,11.86
2023-04-09T08:36:42.304Z,12.21
2023-04-09T08:39:10.047Z,12.16
2023-04-09T08:41:44.141Z,12.38
2023-04-09T08:44:11.900Z,12.55
2023-04-09T08:46:39.657Z,12.67
2023-04-09T08:49:09.894Z,12.94
2023-04-09T08:51:37.780Z,13.18
2023-04-09T08:54:07.658Z,13.32
2023-04-09T08:56:35.666Z,13.57
2023-04-09T08:59:03.503Z,13.62
2023-04-09T09:01:33.216Z,13.55
2023-04-09T09:04:04.164Z,12.91
2023-04-09T09:06:34.137Z,13.71
2023-04-09T09:09:04.959Z,13.97
2023-04-09T09:11:35.799Z,13.50
2023-04-09T09:14:05.582Z,13.20
2023-04-09T09:16:35.004Z,13.31
2023-04-09T09:19:03.524Z,12.93
2023-04-09T09:21:31.795Z,13.40
2023-04-09T09:23:59.647Z,13.77
2023-04-09T09:26:30.074Z,13.39
2023-04-09T09:29:01.492Z,13.37
2023-04-09T09:31:29.855Z,13.53
2023-04-09T09:33:57.911Z,14.18
2023-04-09T09:36:33.345Z,14.11
2023-04-09T09:39:03.908Z,14.21
2023-04-09T09:41:32.351Z,14.05
2023-04-09T09:44:02.010Z,14.23
2023-04-09T09:46:33.640Z,13.96
2023-04-09T09:49:01.600Z,14.25
2023-04-09T09:51:31.347Z,14.01
2023-04-09T09:53:59.687Z,14.01
2023-04-09T09:56:35.848Z,13.94
2023-04-09T09:59:11.792Z,14.04
2023-04-09T10:01:41.165Z,13.63
2023-04-09T10:04:13.605Z,13.81
2023-04-09T10:06:44.575Z,14.28
2023-04-09T10:09:13.886Z,14.28
2023-04-09T10:11:45.461Z,14.22
2023-04-09T10:14:15.306Z,14.20
2023-04-09T10:16:43.507Z,14.31
2023-04-09T10:19:14.045Z,14.73
2023-04-09T10:21:47.463Z,14.80
2023-04-09T10:24:17.028Z,14.49
2023-04-09T10:26:46.146Z,14.99
2023-04-09T10:29:16.612Z,14.85
2023-04-09T10:31:49.961Z,14.45
2023-04-09T10:34:19.016Z,14.69
2023-04-09T10:36:51.442Z,14.83
2023-04-09T10:39:19.368Z,15.00
2023-04-09T10:41:49.837Z,15.33
2023-04-09T10:44:23.022Z,15.26
2023-04-09T10:46:51.311Z,14.90
2023-04-09T10:49:20.879Z,15.42
2023-04-09T10:52:02.190Z,15.57
2023-04-09T10:54:45.682Z,14.93
2023-04-09T10:57:19.186Z,15.15
2023-04-09T10:59:52.811Z,15.14
2023-04-09T11:03:01.866Z,14.83
2023-04-09T11:05:34.560Z,14.49
2023-04-09T11:08:06.870Z,14.75
2023-04-09T11:10:35.206Z,15.12
2023-04-09T11:13:03.535Z,14.94
2023-04-09T11:15:33.775Z,14.99
2023-04-09T11:18:02.515Z,14.59
2023-04-09T11:20:31.237Z,14.69
2023-04-09T11:23:01.444Z,14.61
2023-04-09T11:25:31.866Z,14.92
2023-04-09T11:27:59.811Z,14.86
2023-04-09T11:30:28.005Z,14.63
2023-04-09T11:32:57.242Z,14.99
2023-04-09T11:35:25.568Z,14.87
2023-04-09T11:37:54.046Z,14.49
2023-04-09T11:40:23.699Z,14.73
2023-04-09T11:42:52.812Z,15.39
2023-04-09T11:45:22.239Z,15.20
2023-04-09T11:47:50.478Z,14.88
2023-04-09T11:50:20.978Z,14.68
2023-04-09T11:52:49.743Z,14.69
2023-04-09T11:55:24.963Z,14.67
2023-04-09T11:57:55.003Z,15.37
2023-04-09T12:00:24.653Z,15.38
2023-04-09T12:03:00.487Z,15.34
2023-04-09T12:05:31.847Z,15.39
2023-04-09T12:08:01.175Z,16.13
2023-04-09T12:10:30.002Z,16.32
2023-04-09T12:13:03.714Z,16.79
2023-04-09T12:15:36.034Z,16.04
2023-04-09T12:18:04.457Z,15.85
2023-04-09T12:20:36.861Z,16.37
2023-04-09T12:23:06.278Z,15.58
2023-04-09T12:25:36.576Z,15.89
2023-04-09T12:28:05.676Z,15.97
2023-04-09T12:30:34.280Z,15.75
2023-04-09T12:33:02.221Z,15.98
2023-04-09T12:35:30.203Z,15.69
2023-04-09T12:38:00.688Z,15.43
2023-04-09T12:40:28.947Z,15.89
2023-04-09T12:42:56.780Z,15.78
2023-04-09T12:45:24.556Z,15.65
2023-04-09T12:47:52.753Z,15.82
2023-04-09T12:50:20.754Z,15.88
2023-04-09T12:52:48.842Z,16.11
2023-04-09T12:55:18.119Z,15.48
2023-04-09T12:57:47.539Z,15.59
2023-04-09T13:00:16.290Z,15.30
2023-04-09T13:02:44.379Z,15.38
2023-04-09T13:05:13.179Z,15.44
2023-04-09T13:07:43.041Z,15.21
2023-04-09T13:10:11.651Z,15.04
2023-04-09T13:12:41.312Z,15.35
2023-04-09T13:15:09.310Z,15.86
2023-04-09T13:17:37.140Z,15.70
2023-04-09T13:20:05.542Z,15.84
2023-04-09T13:22:33.617Z,15.94
2023-04-09T13:25:01.387Z,16.17
2023-04-09T13:27:29.151Z,16.02
2023-04-09T13:29:58.340Z,16.13
2023-04-09T13:32:26.159Z,16.28
2023-04-09T13:34:55.307Z,16.06
2023-04-09T13:37:23.072Z,15.70
2023-04-09T13:39:51.185Z,15.28
2023-04-09T13:42:19.085Z,15.50
2023-04-09T13:44:46.817Z,15.67
2023-04-09T13:47:17.305Z,15.90
2023-04-09T13:49:45.373Z,15.66
2023-04-09T13:52:13.140Z,15.00
2023-04-09T13:54:41.138Z,15.22
2023-04-09T13:57:08.903Z,15.30
2023-04-09T13:59:37.966Z,15.42
2023-04-09T14:02:05.890Z,15.75
2023-04-09T14:04:35.196Z,15.93
2023-04-09T14:07:03.515Z,15.73
2023-04-09T14:09:31.697Z,15.09
2023-04-09T14:11:59.530Z,15.12
2023-04-09T14:14:27.223Z,14.88
2023-04-09T14:16:55.401Z,15.05
2023-04-09T14:19:24.347Z,14.90
2023-04-09T14:21:54.327Z,15.00
2023-04-09T14:24:23.123Z,14.99
2023-04-09T14:26:53.337Z,14.60
2023-04-09T14:29:22.054Z,14.93
2023-04-09T14:31:50.624Z,14.89
2023-04-09T14:34:18.577Z,14.71
2023-04-09T14:36:46.310Z,14.76
2023-04-09T14:39:15.574Z,15.00
2023-04-09T14:41:43.371Z,15.06
2023-04-09T14:44:11.160Z,15.07
2023-04-09T14:46:39.126Z,15.26
2023-04-09T14:49:07.116Z,15.35
2023-04-09T14:51:35.578Z,15.43
2023-04-09T14:54:03.351Z,15.49
2023-04-09T14:56:32.721Z,15.60
2023-04-09T14:59:00.645Z,15.55
2023-04-09T15:01:28.737Z,15.04
2023-04-09T15:03:57.071Z,15.29
2023-04-09T15:06:24.972Z,15.50
2023-04-09T15:08:53.051Z,15.40
2023-04-09T15:11:22.818Z,15.43
2023-04-09T15:13:52.423Z,15.23
2023-04-09T15:16:24.318Z,15.26
2023-04-09T15:18:52.961Z,15.24
2023-04-09T15:21:20.849Z,15.20
2023-04-09T15:23:48.590Z,15.10
2023-04-09T15:26:16.942Z,15.13
2023-04-09T15:28:46.023Z,15.21
2023-04-09T15:31:15.599Z,15.25
2023-04-09T15:33:44.670Z,15.31
2023-04-09T15:36:12.622Z,15.12
2023-04-09T15:38:40.406Z,14.99
2023-04-09T15:41:08.095Z,14.92
2023-04-09T15:43:35.938Z,14.87
2023-04-09T15:46:09.228Z,14.77
2023-04-09T15:48:38.666Z,14.97
2023-04-09T15:51:07.243Z,14.91
2023-04-09T15:53:34.982Z,14.83
2023-04-09T15:56:03.377Z,14.85
2023-04-09T15:58:31.227Z,14.83
2023-04-09T16:00:59.394Z,14.98
2023-04-09T16:03:27.720Z,14.81
2023-04-09T16:05:56.945Z,14.87
2023-04-09T16:08:26.550Z,14.86
2023-04-09T16:10:54.542Z,14.95
2023-04-09T16:13:23.003Z,14.85
2023-04-09T16:15:51.128Z,14.87
2023-04-09T16:18:20.000Z,15.15
2023-04-09T16:20:47.908Z,14.92
2023-04-09T16:23:17.276Z,14.98
2023-04-09T16:25:45.253Z,14.96
2023-04-09T16:28:14.149Z,15.01
2023-04-09T16:30:42.164Z,14.84
2023-04-09T16:33:10.386Z,14.79
2023-04-09T16:35:39.767Z,14.70
2023-04-09T16:38:08.355Z,14.75
2023-04-09T16:40:38.035Z,14.69
2023-04-09T16:43:06.610Z,14.59
2023-04-09T16:45:34.711Z,14.47
2023-04-09T16:48:02.786Z,14.53
2023-04-09T16:50:30.664Z,14.65
2023-04-09T16:53:00.686Z,14.50
2023-04-09T16:55:28.493Z,14.39
2023-04-09T16:57:57.708Z,14.50
2023-04-09T17:00:25.618Z,14.55
2023-04-09T17:02:55.829Z,14.43
2023-04-09T17:05:23.860Z,14.08
2023-04-09T17:07:52.427Z,14.29
2023-04-09T17:10:20.651Z,14.13
2023-04-09T17:12:48.618Z,14.24
2023-04-09T17:15:18.257Z,14.10
2023-04-09T17:17:47.801Z,14.14
2023-04-09T17:20:15.763Z,14.22
2023-04-09T17:22:43.978Z,14.16
2023-04-09T17:25:12.321Z,13.97
2023-04-09T17:27:40.148Z,14.00
2023-04-09T17:30:09.029Z,14.13
2023-04-09T17:32:39.302Z,14.16
2023-04-09T17:35:08.966Z,14.17
2023-04-09T17:37:37.628Z,13.91
2023-04-09T17:40:06.615Z,13.98
2023-04-09T17:42:34.374Z,13.86
2023-04-09T17:45:02.272Z,13.78
2023-04-09T17:47:30.079Z,13.76
2023-04-09T17:49:59.308Z,13.70
2023-04-09T17:52:27.026Z,13.62
2023-04-09T17:54:54.944Z,13.58
2023-04-09T17:57:22.873Z,13.59
2023-04-09T17:59:50.685Z,13.54
2023-04-09T18:02:18.678Z,13.54
2023-04-09T18:04:47.233Z,13.36
2023-04-09T18:07:17.338Z,13.29
2023-04-09T18:09:45.172Z,13.35
2023-04-09T18:12:13.024Z,13.20
2023-04-09T18:14:40.875Z,13.11
2023-04-09T18:17:08.697Z,13.03
2023-04-09T18:19:36.934Z,13.15
2023-04-09T18:22:04.863Z,13.08
2023-04-09T18:24:34.533Z,12.97
2023-04-09T18:27:03.528Z,12.83
2023-04-09T18:29:31.958Z,12.84
2023-04-09T18:32:00.165Z,12.79
2023-04-09T18:34:28.315Z,12.62
2023-04-09T18:36:56.145Z,12.66
2023-04-09T18:39:24.443Z,12.67
2023-04-09T18:41:53.928Z,12.49
2023-04-09T18:44:21.833Z,12.45
2023-04-09T18:46:49.760Z,12.39
2023-04-09T18:49:17.939Z,12.29
2023-04-09T18:51:45.812Z,12.34
2023-04-09T18:54:13.796Z,12.24
2023-04-09T18:56:41.556Z,12.14
2023-04-09T18:59:11.555Z,12.18
2023-04-09T19:01:39.348Z,12.22
2023-04-09T19:04:07.245Z,12.15
2023-04-09T19:06:36.420Z,12.06
2023-04-09T19:09:04.665Z,12.04
2023-04-09T19:11:32.822Z,11.78
2023-04-09T19:14:00.633Z,11.89
2023-04-09T19:16:29.870Z,11.67
2023-04-09T19:18:58.606Z,11.74
2023-04-09T19:21:26.512Z,11.83
2023-04-09T19:23:54.225Z,11.77
2023-04-09T19:26:22.293Z,11.71
2023-04-09T19:28:50.055Z,11.67
2023-04-09T19:31:17.897Z,11.87
2023-04-09T19:33:47.289Z,11.66
2023-04-09T19:36:15.025Z,11.28
2023-04-09T19:38:42.934Z,11.43
2023-04-09T19:41:10.708Z,11.35
2023-04-09T19:43:39.490Z,11.35
2023-04-09T19:46:08.428Z,11.27
2023-04-09T19:48:36.652Z,11.18
2023-04-09T19:51:07.051Z,11.08
2023-04-09T19:53:36.340Z,11.21
2023-04-09T19:56:04.213Z,11.10
2023-04-09T19:58:32.744Z,11.29
2023-04-09T20:01:01.668Z,11.18
2023-04-09T20:03:29.919Z,11.14
2023-04-09T20:05:57.868Z,11.19
2023-04-09T20:08:27.449Z,11.26
2023-04-09T20:10:55.206Z,11.12
2023-04-09T20:13:23.410Z,11.31
2023-04-09T20:15:51.411Z,11.31
2023-04-09T20:18:19.295Z,11.23
2023-04-09T20:20:47.064Z,11.12
2023-04-09T20:23:14.986Z,11.29
2023-04-09T20:25:44.176Z,11.23
2023-04-09T20:28:12.042Z,11.11
2023-04-09T20:30:39.861Z,11.11
2023-04-09T20:33:07.838Z,11.00
2023-04-09T20:35:36.536Z,11.00
2023-04-09T20:38:04.696Z,11.06
2023-04-09T20:40:32.856Z,10.97
2023-04-09T20:43:02.196Z,10.82
2023-04-09T20:45:29.999Z,10.91
2023-04-09T20:47:57.822Z,10.97
2023-04-09T20:50:25.961Z,11.12
2023-04-09T20:52:54.062Z,10.91
2023-04-09T20:55:22.061Z,10.90
2023-04-09T20:57:50.205Z,10.87
2023-04-09T21:00:19.835Z,10.85
2023-04-09T21:02:47.723Z,10.86
2023-04-09T21:05:22.434Z,10.85
2023-04-09T21:07:52.005Z,10.83
2023-04-09T21:10:19.989Z,10.87
2023-04-09T21:12:47.920Z,10.66
2023-04-09T21:15:15.912Z,10.66
2023-04-09T21:17:45.511Z,10.52
2023-04-09T21:20:15.168Z,10.53
2023-04-09T21:22:43.046Z,10.56
2023-04-09T21:25:12.666Z,10.38
2023-04-09T21:27:41.615Z,10.38
2023-04-09T21:30:10.455Z,10.35
2023-04-09T21:32:38.515Z,10.38
2023-04-09T21:35:08.698Z,10.34
2023-04-09T21:37:37.528Z,10.19
2023-04-09T21:40:06.239Z,10.09
2023-04-09T21:42:34.022Z,10.15
2023-04-09T21:45:02.582Z,10.12
2023-04-09T21:47:30.661Z,10.13
2023-04-09T21:49:58.600Z,10.01
2023-04-09T21:52:28.132Z,10.04
2023-04-09T21:54:55.857Z,10.00
2023-04-09T21:57:23.639Z,10.00
2023-04-09T21:59:51.525Z,10.10
2023-04-09T22:02:19.517Z,9.91
2023-04-09T22:04:47.422Z,9.82
2023-04-09T22:07:15.345Z,9.87
2023-04-09T22:09:44.488Z,9.89
2023-04-09T22:12:12.249Z,9.93
2023-04-09T22:14:41.768Z,9.95
2023-04-09T22:17:09.871Z,9.91
2023-04-09T22:19:37.695Z,9.90
2023-04-09T22:22:05.465Z,9.85
2023-04-09T22:24:33.893Z,9.84
2023-04-09T22:27:03.228Z,9.78
2023-04-09T22:29:31.325Z,9.81
2023-04-09T22:31:59.197Z,9.72
2023-04-09T22:34:27.274Z,9.67
2023-04-09T22:36:55.065Z,9.65
2023-04-09T22:39:23.240Z,9.53
2023-04-09T22:41:50.973Z,9.53
2023-04-09T22:44:20.224Z,9.37
2023-04-09T22:46:48.045Z,9.36
2023-04-09T22:49:16.118Z,9.36
2023-04-09T22:51:44.007Z,9.21
2023-04-09T22:54:11.777Z,9.22
2023-04-09T22:56:39.658Z,9.11
2023-04-09T22:59:08.309Z,9.09
2023-04-09T23:01:39.933Z,9.02
2023-04-09T23:04:08.163Z,9.06
2023-04-09T23:06:36.090Z,9.02
2023-04-09T23:09:03.912Z,8.96
2023-04-09T23:11:31.944Z,8.90
2023-04-09T23:13:59.949Z,9.06
2023-04-09T23:16:27.837Z,8.94
2023-04-09T23:18:57.007Z,8.94
2023-04-09T23:21:24.736Z,8.97
2023-04-09T23:23:52.884Z,8.82
2023-04-09T23:26:21.191Z,8.80
2023-04-09T23:28:48.984Z,8.70
2023-04-09T23:31:17.204Z,8.72
2023-04-09T23:33:44.908Z,8.65
2023-04-09T23:36:14.183Z,8.68
2023-04-09T23:38:43.769Z,8.74
2023-04-09T23:41:11.533Z,8.77
2023-04-09T23:43:39.391Z,8.80
2023-04-09T23:46:07.253Z,8.70
2023-04-09T23:48:35.195Z,8.66
2023-04-09T23:51:02.947Z,8.57
2023-04-09T23:53:32.251Z,8.48
2023-04-09T23:56:00.124Z,8.60
2023-04-09T23:58:27.845Z,8.58
